Time;durP1;ratioP1;P1;durP2;ratioP2;P2;SDS_P1;SDS_P2;PMS_P1;PMS_P2;Temp;Humidity;BMP_temperature;BMP_pressure;BME280_temperature;BME280_humidity;BME280_pressure;Samples;Min_cycle;Max_cycle;Signal;HPM_P1;HPM_P2
2021/07/29 00:02:16;;;;;;;15.00;12.83;;;17.90;99.90;;;;;;5022470;28;20505;-68
2021/07/29 00:04:44;;;;;;;13.03;11.50;;;17.90;99.90;;;;;;5020649;28;20421;-66
2021/07/29 00:07:11;;;;;;;13.70;10.93;;;17.90;99.90;;;;;;5018825;28;20452;-68
2021/07/29 00:09:38;;;;;;;15.03;13.10;;;18.00;99.90;;;;;;5008952;28;20453;-66
2021/07/29 00:12:05;;;;;;;16.20;12.10;;;17.80;99.90;;;;;;5020790;28;20665;-67
2021/07/29 00:14:32;;;;;;;12.83;11.00;;;17.80;99.90;;;;;;5006863;28;20419;-66
2021/07/29 00:17:01;;;;;;;15.00;12.20;;;17.90;99.90;;;;;;5033280;28;20506;-68
2021/07/29 00:19:28;;;;;;;15.30;12.00;;;17.80;99.90;;;;;;5022000;28;20413;-66
2021/07/29 00:21:55;;;;;;;13.80;12.23;;;17.80;99.90;;;;;;5020333;28;20452;-66
2021/07/29 00:24:25;;;;;;;16.20;11.23;;;17.80;99.90;;;;;;5034514;28;20466;-67
2021/07/29 00:26:53;;;;;;;15.07;12.03;;;17.80;99.90;;;;;;5020796;28;20446;-66
2021/07/29 00:29:20;;;;;;;16.40;13.10;;;17.60;99.90;;;;;;5018495;28;20463;-66
2021/07/29 00:31:47;;;;;;;16.07;11.93;;;17.60;99.90;;;;;;5008820;28;20661;-67
2021/07/29 00:34:14;;;;;;;14.30;10.93;;;17.50;99.90;;;;;;5018605;28;20873;-66
2021/07/29 00:36:41;;;;;;;14.70;10.53;;;17.60;99.90;;;;;;5019379;28;20441;-66
2021/07/29 00:39:08;;;;;;;13.43;11.00;;;17.60;99.90;;;;;;5020735;28;20416;-67
2021/07/29 00:41:35;;;;;;;25.93;11.27;;;17.60;99.90;;;;;;5018931;28;20520;-67
2021/07/29 00:44:04;;;;;;;14.97;12.10;;;17.50;99.90;;;;;;5020149;28;20413;-67
2021/07/29 00:46:32;;;;;;;14.03;11.43;;;17.40;99.90;;;;;;5018689;28;20788;-67
2021/07/29 00:49:05;;;;;;;11.13;10.10;;;17.40;99.90;;;;;;5013340;28;20425;-66
2021/07/29 00:51:35;;;;;;;14.70;10.20;;;17.20;99.90;;;;;;5000755;28;20472;-66
2021/07/29 00:54:02;;;;;;;11.27;10.00;;;17.30;99.90;;;;;;5003860;28;20413;-65
2021/07/29 00:56:30;;;;;;;14.63;8.70;;;17.10;99.90;;;;;;5013753;28;20489;-66
2021/07/29 00:58:57;;;;;;;13.00;8.77;;;17.10;99.90;;;;;;5000557;28;20442;-65
2021/07/29 01:01:24;;;;;;;9.70;8.73;;;17.10;99.90;;;;;;5014175;28;20479;-65
2021/07/29 01:03:52;;;;;;;11.90;10.27;;;17.10;99.90;;;;;;5011152;28;20435;-65
2021/07/29 01:06:19;;;;;;;10.87;8.97;;;17.20;99.90;;;;;;5016768;28;20427;-65
2021/07/29 01:09:06;;;;;;;12.23;9.70;;;17.30;99.90;;;;;;5016768;28;20420;-65
2021/07/29 01:11:33;;;;;;;9.90;8.30;;;17.20;99.90;;;;;;5019503;28;20477;-66
2021/07/29 01:14:01;;;;;;;18.43;8.90;;;17.00;99.90;;;;;;5019147;28;20416;-66
2021/07/29 01:16:28;;;;;;;8.10;6.43;;;17.00;99.90;;;;;;5019212;28;20432;-65
2021/07/29 01:18:56;;;;;;;10.73;8.10;;;17.10;99.90;;;;;;5019273;28;20788;-68
2021/07/29 01:21:43;;;;;;;12.83;7.97;;;17.10;99.90;;;;;;5018268;28;20459;-67
2021/07/29 01:24:10;;;;;;;10.57;7.60;;;17.20;99.90;;;;;;5010022;28;20470;-68
2021/07/29 01:26:37;;;;;;;8.73;7.83;;;17.10;99.90;;;;;;5015026;28;20463;-65
2021/07/29 01:29:04;;;;;;;12.30;7.43;;;16.90;99.90;;;;;;5011522;28;20442;-65
2021/07/29 01:31:31;;;;;;;12.23;8.10;;;16.90;99.90;;;;;;5013481;28;20440;-64
2021/07/29 01:33:58;;;;;;;8.77;6.30;;;16.90;99.90;;;;;;5021912;28;20443;-68
2021/07/29 01:36:25;;;;;;;7.47;6.50;;;16.90;99.90;;;;;;5012223;28;20491;-68
2021/07/29 01:38:52;;;;;;;8.53;6.57;;;17.00;99.90;;;;;;5011893;28;20491;-67
2021/07/29 01:41:19;;;;;;;7.97;7.20;;;17.00;99.90;;;;;;5018731;28;20511;-67
2021/07/29 01:43:46;;;;;;;7.27;6.57;;;16.90;99.90;;;;;;5019260;28;20422;-67
2021/07/29 01:46:13;;;;;;;9.27;7.00;;;16.90;99.90;;;;;;5011611;28;20422;-66
2021/07/29 01:48:40;;;;;;;10.03;7.63;;;16.80;99.90;;;;;;5018941;28;20448;-67
2021/07/29 01:51:07;;;;;;;12.27;8.90;;;16.80;99.90;;;;;;5019255;28;20445;-66
2021/07/29 01:53:34;;;;;;;12.40;6.90;;;16.80;99.90;;;;;;5019133;28;20878;-67
2021/07/29 01:56:01;;;;;;;7.60;6.80;;;16.70;99.90;;;;;;5018769;28;20460;-66
2021/07/29 01:58:28;;;;;;;7.00;6.30;;;16.60;99.90;;;;;;5008171;28;20484;-68
2021/07/29 02:00:55;;;;;;;10.33;7.73;;;16.70;99.90;;;;;;4999233;28;20458;-69
2021/07/29 02:03:22;;;;;;;9.67;6.23;;;16.70;99.90;;;;;;5008659;28;20420;-67
2021/07/29 02:05:49;;;;;;;8.80;6.37;;;16.70;99.90;;;;;;5006526;28;20529;-66
2021/07/29 02:08:16;;;;;;;7.03;5.60;;;16.80;99.90;;;;;;5038987;28;20439;-66
2021/07/29 02:10:43;;;;;;;12.03;6.97;;;16.70;99.90;;;;;;5024633;28;20719;-66
2021/07/29 02:13:11;;;;;;;7.27;6.23;;;16.60;99.90;;;;;;5018893;28;20455;-68
2021/07/29 02:15:38;;;;;;;7.80;6.67;;;16.60;99.90;;;;;;5018945;28;20437;-67
2021/07/29 02:18:05;;;;;;;6.60;6.00;;;16.70;99.90;;;;;;5004381;28;20439;-68
2021/07/29 02:20:31;;;;;;;6.70;6.20;;;16.60;99.90;;;;;;5028759;28;20517;-67
2021/07/29 02:22:59;;;;;;;8.27;6.60;;;16.40;99.90;;;;;;5021748;28;20531;-67
2021/07/29 02:25:26;;;;;;;7.97;6.70;;;16.40;99.90;;;;;;5018552;28;20441;-68
2021/07/29 02:27:53;;;;;;;9.70;8.70;;;16.70;99.90;;;;;;5004228;28;20441;-67
2021/07/29 02:30:20;;;;;;;11.13;6.47;;;16.60;99.90;;;;;;5025540;28;21041;-68
2021/07/29 02:32:47;;;;;;;11.00;6.00;;;16.60;99.90;;;;;;5024548;28;20419;-68
2021/07/29 02:35:14;;;;;;;7.80;7.00;;;16.60;99.90;;;;;;5017458;28;20438;-67
2021/07/29 02:37:41;;;;;;;6.70;6.10;;;16.70;99.90;;;;;;5022019;28;20435;-67
2021/07/29 02:40:09;;;;;;;10.47;5.97;;;16.70;99.90;;;;;;5018427;28;20644;-67
2021/07/29 02:42:36;;;;;;;10.73;6.93;;;16.50;99.90;;;;;;5018171;28;20451;-67
2021/07/29 02:45:03;;;;;;;10.40;6.47;;;16.60;99.90;;;;;;5016675;28;20472;-67
2021/07/29 02:47:30;;;;;;;6.90;6.20;;;16.50;99.90;;;;;;5018842;28;20463;-67
2021/07/29 02:49:58;;;;;;;7.33;6.30;;;16.50;99.90;;;;;;5018288;28;20496;-67
2021/07/29 02:52:25;;;;;;;7.17;6.30;;;16.50;99.90;;;;;;5018420;28;20613;-66
2021/07/29 02:54:52;;;;;;;7.60;6.50;;;16.30;99.90;;;;;;5018180;28;20759;-66
2021/07/29 02:57:19;;;;;;;7.90;7.10;;;16.50;99.90;;;;;;5017381;28;20439;-66
2021/07/29 02:59:45;;;;;;;11.07;7.73;;;16.50;99.90;;;;;;5013224;28;20737;-67
2021/07/29 03:02:12;;;;;;;8.77;7.90;;;16.50;99.90;;;;;;5024479;28;20481;-68
2021/07/29 03:04:40;;;;;;;6.93;6.23;;;16.50;99.90;;;;;;5017599;28;20441;-68
2021/07/29 03:07:07;;;;;;;7.95;7.15;;;16.40;99.90;;;;;;5009814;28;20664;-67
2021/07/29 03:09:34;;;;;;;7.50;6.77;;;16.40;99.90;;;;;;5018107;28;20207;-67
2021/07/29 03:12:01;;;;;;;7.77;6.80;;;16.60;99.90;;;;;;5022690;28;20477;-67
2021/07/29 03:14:29;;;;;;;8.03;7.20;;;16.70;99.90;;;;;;5018023;28;20491;-67
2021/07/29 03:16:56;;;;;;;8.87;6.10;;;16.80;99.90;;;;;;5023682;28;20433;-67
2021/07/29 03:19:23;;;;;;;8.50;7.43;;;16.90;99.90;;;;;;5023314;28;20429;-68
2021/07/29 03:21:50;;;;;;;9.10;6.50;;;16.90;99.90;;;;;;5018164;28;20487;-67
2021/07/29 03:24:17;;;;;;;7.30;6.60;;;16.80;99.90;;;;;;5016152;28;20440;-68
2021/07/29 03:26:44;;;;;;;8.73;7.33;;;16.90;99.90;;;;;;5018272;28;20440;-67
2021/07/29 03:29:11;;;;;;;7.33;6.53;;;16.90;99.90;;;;;;5017190;28;21112;-69
2021/07/29 03:31:38;;;;;;;7.87;7.07;;;17.00;99.90;;;;;;5019437;28;20473;-69
2021/07/29 03:34:05;;;;;;;7.90;6.67;;;17.00;99.90;;;;;;5022549;28;20485;-67
2021/07/29 03:36:32;;;;;;;9.00;7.30;;;17.00;99.90;;;;;;5024831;28;20444;-68
2021/07/29 03:38:59;;;;;;;7.63;6.93;;;17.00;99.90;;;;;;5021074;28;20443;-67
2021/07/29 03:41:26;;;;;;;7.33;6.60;;;17.00;99.90;;;;;;5016695;28;20441;-67
2021/07/29 03:43:53;;;;;;;8.13;7.32;;;17.00;99.90;;;;;;5017029;28;20415;-67
2021/07/29 03:46:20;;;;;;;9.70;7.50;;;17.10;99.90;;;;;;5013846;28;20244;-67
2021/07/29 03:48:48;;;;;;;11.70;6.60;;;17.10;99.90;;;;;;5020686;28;20437;-67
2021/07/29 03:51:14;;;;;;;12.65;8.23;;;17.10;99.90;;;;;;5025067;28;20467;-67
2021/07/29 03:53:41;;;;;;;8.43;6.97;;;17.20;99.90;;;;;;5024732;28;20399;-67
2021/07/29 03:56:08;;;;;;;7.60;6.90;;;17.40;99.90;;;;;;5020750;28;20416;-67
2021/07/29 03:58:36;;;;;;;9.03;7.17;;;17.50;99.90;;;;;;5020044;28;20996;-67
2021/07/29 04:01:05;;;;;;;10.30;7.53;;;17.60;99.90;;;;;;5017159;28;20410;-67
2021/07/29 04:03:32;;;;;;;9.00;6.33;;;17.70;99.90;;;;;;5020044;28;20476;-67
2021/07/29 04:05:59;;;;;;;12.10;7.47;;;17.80;99.90;;;;;;5023500;28;20441;-68
2021/07/29 04:08:26;;;;;;;9.00;7.87;;;17.80;99.90;;;;;;5023759;28;20435;-68
2021/07/29 04:10:57;;;;;;;7.27;6.40;;;17.90;99.90;;;;;;5019276;28;20446;-68
2021/07/29 04:13:24;;;;;;;9.50;6.97;;;17.80;99.90;;;;;;5022825;28;20629;-68
2021/07/29 04:16:03;;;;;;;7.13;6.43;;;18.00;99.90;;;;;;5026233;28;20754;-68
2021/07/29 04:18:31;;;;;;;10.80;7.63;;;18.10;99.90;;;;;;5026117;28;20771;-68
2021/07/29 04:20:59;;;;;;;10.27;6.73;;;18.10;99.90;;;;;;5025828;28;20444;-67
2021/07/29 04:23:27;;;;;;;9.63;8.70;;;18.10;99.90;;;;;;5020915;28;20463;-68
2021/07/29 04:25:54;;;;;;;9.10;8.20;;;18.10;99.90;;;;;;5026320;28;20441;-69
2021/07/29 04:28:21;;;;;;;8.87;7.97;;;18.20;99.90;;;;;;5013084;28;20488;-69
2021/07/29 04:30:48;;;;;;;12.43;7.50;;;18.40;99.90;;;;;;5025322;28;20416;-70
2021/07/29 04:33:15;;;;;;;21.20;8.67;;;18.40;99.90;;;;;;5025756;28;20437;-69
2021/07/29 04:35:42;;;;;;;6.83;6.13;;;18.60;99.90;;;;;;5014689;28;20980;-69
2021/07/29 04:38:09;;;;;;;6.30;5.70;;;18.70;99.90;;;;;;5024167;28;20740;-68
2021/07/29 04:40:36;;;;;;;16.50;8.70;;;18.70;99.90;;;;;;5017902;28;20469;-68
2021/07/29 04:43:03;;;;;;;8.10;6.60;;;18.80;99.90;;;;;;5015301;28;20478;-69
2021/07/29 04:45:31;;;;;;;7.93;6.70;;;18.80;99.90;;;;;;5011096;28;20418;-69
2021/07/29 04:47:58;;;;;;;9.10;7.30;;;18.70;99.90;;;;;;5019277;28;20413;-69
2021/07/29 04:50:25;;;;;;;7.20;5.60;;;18.80;99.90;;;;;;5035154;28;20485;-68
2021/07/29 04:52:53;;;;;;;9.53;6.40;;;18.80;99.90;;;;;;5020043;28;20517;-69
2021/07/29 04:55:20;;;;;;;8.37;6.47;;;18.90;99.90;;;;;;5020010;28;20409;-69
2021/07/29 04:57:47;;;;;;;7.53;6.83;;;19.10;99.90;;;;;;5020325;28;20460;-69
2021/07/29 05:00:15;;;;;;;7.23;6.53;;;19.10;99.90;;;;;;5018862;28;20413;-70
2021/07/29 05:02:41;;;;;;;7.83;5.97;;;19.20;99.90;;;;;;5019141;28;20472;-70
2021/07/29 05:05:09;;;;;;;7.30;6.70;;;19.30;99.90;;;;;;5019539;28;20731;-69
2021/07/29 05:07:36;;;;;;;7.40;6.00;;;19.40;99.90;;;;;;5016395;28;20459;-69
2021/07/29 05:10:04;;;;;;;8.50;7.43;;;19.50;99.90;;;;;;4999750;28;20506;-71
2021/07/29 05:12:31;;;;;;;7.23;6.70;;;19.50;99.90;;;;;;5029396;28;20409;-70
2021/07/29 05:14:58;;;;;;;11.57;6.13;;;19.70;99.90;;;;;;5018697;28;20422;-69
2021/07/29 05:17:25;;;;;;;7.87;7.17;;;19.80;99.90;;;;;;5019304;28;20834;-69
2021/07/29 05:19:53;;;;;;;11.70;6.07;;;19.90;99.90;;;;;;5013366;28;20465;-69
2021/07/29 05:22:20;;;;;;;9.40;6.30;;;20.10;99.90;;;;;;5010645;28;20452;-68
2021/07/29 05:24:47;;;;;;;7.10;6.43;;;20.30;99.90;;;;;;5022605;28;20408;-70
2021/07/29 05:27:14;;;;;;;7.97;7.37;;;20.40;99.90;;;;;;5020523;28;21002;-71
2021/07/29 05:29:41;;;;;;;9.30;6.87;;;20.50;99.90;;;;;;5016584;28;20460;-71
2021/07/29 05:32:08;;;;;;;7.53;6.87;;;20.60;99.90;;;;;;5019965;28;20576;-71
2021/07/29 05:34:35;;;;;;;7.77;7.07;;;20.60;99.90;;;;;;5018281;28;20476;-71
2021/07/29 05:37:03;;;;;;;9.60;6.77;;;20.80;99.90;;;;;;5006096;28;20443;-71
2021/07/29 05:39:34;;;;;;;9.20;6.93;;;20.80;99.90;;;;;;5006749;28;20445;-69
2021/07/29 05:42:01;;;;;;;7.60;6.87;;;20.90;99.90;;;;;;5014148;28;20485;-68
2021/07/29 05:44:28;;;;;;;7.07;6.43;;;21.10;99.90;;;;;;5020835;28;20436;-69
2021/07/29 05:46:56;;;;;;;8.30;7.47;;;21.30;99.90;;;;;;5025170;28;20423;-68
2021/07/29 05:49:22;;;;;;;8.43;7.07;;;21.50;99.90;;;;;;5022453;28;20745;-69
2021/07/29 05:51:49;;;;;;;6.70;6.10;;;21.50;99.90;;;;;;5015787;28;20893;-69
2021/07/29 05:54:16;;;;;;;7.57;6.97;;;21.50;99.90;;;;;;5018429;28;20440;-69
2021/07/29 05:56:45;;;;;;;11.40;6.90;;;21.70;99.90;;;;;;5021539;28;20435;-69
2021/07/29 05:59:12;;;;;;;9.43;7.37;;;21.90;99.90;;;;;;5015686;28;20445;-70
2021/07/29 06:01:39;;;;;;;8.50;7.67;;;21.90;99.90;;;;;;5007744;28;20443;-69
2021/07/29 06:04:07;;;;;;;8.27;7.40;;;22.00;99.90;;;;;;5018017;28;20726;-68
2021/07/29 06:06:34;;;;;;;8.93;7.80;;;22.10;99.90;;;;;;5011781;28;20481;-68
2021/07/29 06:09:01;;;;;;;7.03;6.27;;;22.40;99.90;;;;;;5012932;28;20429;-69
2021/07/29 06:11:28;;;;;;;7.67;7.07;;;22.60;99.90;;;;;;5017796;28;20464;-68
2021/07/29 06:13:55;;;;;;;7.30;6.70;;;22.90;99.90;;;;;;5018890;28;20507;-70
2021/07/29 06:16:23;;;;;;;7.50;6.87;;;23.10;99.90;;;;;;5018056;28;20438;-67
2021/07/29 06:19:04;;;;;;;8.97;7.63;;;23.30;99.90;;;;;;5018545;28;20473;-68
2021/07/29 06:21:32;;;;;;;10.67;6.33;;;23.50;99.90;;;;;;5013826;28;20447;-69
2021/07/29 06:24:00;;;;;;;8.67;7.73;;;23.70;99.90;;;;;;5009371;28;20653;-68
2021/07/29 06:26:27;;;;;;;7.87;7.17;;;24.00;99.90;;;;;;5018156;28;20435;-67
2021/07/29 06:28:54;;;;;;;6.90;6.30;;;24.20;99.90;;;;;;5018203;28;20446;-68
2021/07/29 06:31:21;;;;;;;6.93;6.13;;;24.80;99.90;;;;;;5018667;28;20643;-68
2021/07/29 06:33:49;;;;;;;7.87;7.27;;;25.50;99.90;;;;;;5018049;28;20666;-67
2021/07/29 06:36:16;;;;;;;6.83;6.33;;;26.50;99.90;;;;;;5018118;28;20528;-68
2021/07/29 06:38:43;;;;;;;8.40;7.70;;;27.40;99.90;;;;;;5012460;28;20485;-67
2021/07/29 06:41:10;;;;;;;12.60;10.20;;;27.60;99.90;;;;;;4998558;28;20458;-67
2021/07/29 06:43:37;;;;;;;8.60;7.90;;;27.40;99.90;;;;;;5015395;28;20693;-68
2021/07/29 06:46:05;;;;;;;7.50;7.00;;;26.80;99.90;;;;;;5017951;28;20449;-69
2021/07/29 06:48:33;;;;;;;8.20;7.67;;;26.80;99.90;;;;;;5019159;28;20720;-69
2021/07/29 06:51:08;;;;;;;7.93;7.13;;;27.40;99.90;;;;;;5017240;28;20433;-68
2021/07/29 06:53:35;;;;;;;8.73;8.10;;;28.30;99.90;;;;;;5018244;28;20479;-68
2021/07/29 06:56:04;;;;;;;9.40;8.50;;;29.60;99.90;;;;;;5017660;28;20443;-69
2021/07/29 06:58:31;;;;;;;10.43;9.73;;;31.20;95.70;;;;;;5015516;28;20488;-67
2021/07/29 07:01:05;;;;;;;10.20;9.70;;;32.80;92.10;;;;;;5017328;28;20464;-68
2021/07/29 07:03:34;;;;;;;10.33;9.83;;;34.00;88.00;;;;;;5007597;28;20470;-67
2021/07/29 07:06:03;;;;;;;10.00;9.50;;;34.80;82.70;;;;;;5013562;28;20765;-68
2021/07/29 07:08:30;;;;;;;11.20;10.53;;;34.20;81.10;;;;;;5019575;28;20498;-69
2021/07/29 07:10:58;;;;;;;11.60;10.83;;;35.40;76.40;;;;;;5027144;28;20474;-68
2021/07/29 07:13:25;;;;;;;12.00;11.37;;;36.20;75.00;;;;;;5041748;28;20434;-68
2021/07/29 07:15:53;;;;;;;12.33;11.73;;;36.40;71.80;;;;;;5027738;28;20442;-67
2021/07/29 07:18:20;;;;;;;13.67;12.87;;;37.60;70.10;;;;;;5035592;28;20745;-67
2021/07/29 07:20:47;;;;;;;12.53;11.93;;;37.70;67.10;;;;;;5034446;28;20499;-68
2021/07/29 07:23:14;;;;;;;13.60;13.00;;;39.10;62.20;;;;;;5004193;28;20542;-67
2021/07/29 07:25:41;;;;;;;12.80;11.97;;;39.80;59.30;;;;;;5023426;28;20702;-69
2021/07/29 07:28:08;;;;;;;12.53;12.03;;;40.10;58.20;;;;;;5009650;28;20438;-68
2021/07/29 07:30:38;;;;;;;12.10;11.57;;;39.50;58.60;;;;;;5001583;28;21057;-68
2021/07/29 07:33:05;;;;;;;11.47;10.97;;;39.30;57.50;;;;;;5003862;28;20489;-68
2021/07/29 07:35:32;;;;;;;11.87;11.37;;;39.00;57.70;;;;;;5001815;28;20494;-71
2021/07/29 07:37:59;;;;;;;13.50;12.77;;;38.90;57.50;;;;;;5001338;28;20451;-68
2021/07/29 07:40:26;;;;;;;13.20;12.50;;;38.60;57.00;;;;;;5001455;28;20486;-69
2021/07/29 07:42:55;;;;;;;12.40;11.80;;;39.10;56.10;;;;;;5004021;28;20533;-69
2021/07/29 07:45:26;;;;;;;12.10;11.57;;;39.70;54.90;;;;;;5007904;28;20490;-69
2021/07/29 07:47:53;;;;;;;12.60;12.00;;;39.70;53.70;;;;;;5003829;28;20439;-69
2021/07/29 07:50:20;;;;;;;12.83;12.27;;;39.90;52.80;;;;;;5035803;28;20461;-68
2021/07/29 07:52:47;;;;;;;12.73;12.20;;;40.20;52.30;;;;;;5005300;28;20498;-69
2021/07/29 07:55:14;;;;;;;13.93;13.30;;;40.70;52.50;;;;;;5006146;28;20486;-69
2021/07/29 07:57:41;;;;;;;12.73;12.13;;;40.40;51.90;;;;;;5004789;28;20434;-68
2021/07/29 08:00:09;;;;;;;12.93;12.33;;;40.70;52.60;;;;;;5002165;28;20470;-70
2021/07/29 08:02:36;;;;;;;12.70;12.20;;;40.50;52.20;;;;;;5003002;28;20454;-69
2021/07/29 08:05:05;;;;;;;12.20;11.67;;;40.50;52.70;;;;;;5005597;28;20638;-68
2021/07/29 08:07:32;;;;;;;12.77;12.17;;;40.90;51.40;;;;;;5001091;28;20432;-68
2021/07/29 08:09:59;;;;;;;13.13;12.53;;;40.30;52.20;;;;;;5006061;28;20486;-69
2021/07/29 08:12:26;;;;;;;12.40;11.90;;;41.20;51.10;;;;;;5002762;28;20494;-69
2021/07/29 08:14:53;;;;;;;12.10;11.40;;;41.80;51.40;;;;;;5002121;28;20491;-69
2021/07/29 08:17:20;;;;;;;12.80;12.30;;;42.40;49.90;;;;;;5000405;28;20682;-70
2021/07/29 08:19:47;;;;;;;13.77;13.10;;;41.90;48.40;;;;;;5001003;28;20554;-68
2021/07/29 08:22:15;;;;;;;13.13;12.60;;;41.30;50.20;;;;;;5000831;28;20486;-67
2021/07/29 08:24:41;;;;;;;13.23;12.63;;;41.50;49.30;;;;;;5001003;28;20483;-69
2021/07/29 08:27:13;;;;;;;12.80;12.23;;;40.30;50.60;;;;;;5003109;28;20435;-68
2021/07/29 08:29:40;;;;;;;12.57;12.07;;;38.90;52.80;;;;;;5004355;28;20443;-68
2021/07/29 08:32:09;;;;;;;13.50;12.90;;;38.00;54.90;;;;;;5010644;28;20439;-67
2021/07/29 08:34:36;;;;;;;12.30;11.70;;;38.40;53.90;;;;;;5009423;28;20438;-69
2021/07/29 08:37:03;;;;;;;12.40;11.80;;;36.90;55.10;;;;;;5022930;28;20661;-69
2021/07/29 08:39:30;;;;;;;12.13;11.53;;;36.00;57.90;;;;;;5013255;28;20779;-69
2021/07/29 08:41:57;;;;;;;12.80;12.20;;;34.30;60.50;;;;;;5014286;28;20435;-68
2021/07/29 08:44:24;;;;;;;13.00;12.30;;;34.20;60.80;;;;;;5004066;28;20494;-71
2021/07/29 08:46:53;;;;;;;13.10;12.40;;;36.00;58.00;;;;;;5005835;28;20500;-67
2021/07/29 08:49:26;;;;;;;11.60;11.10;;;38.10;54.30;;;;;;5022502;28;20438;-68
2021/07/29 08:51:53;;;;;;;13.07;12.47;;;40.00;51.60;;;;;;5017063;28;20512;-69
2021/07/29 08:54:21;;;;;;;12.57;12.00;;;41.20;49.60;;;;;;5013699;28;20438;-70
2021/07/29 08:56:48;;;;;;;12.30;11.70;;;42.50;47.60;;;;;;5011973;28;20435;-68
2021/07/29 08:59:15;;;;;;;13.30;12.60;;;43.10;46.40;;;;;;5004980;28;20466;-67
2021/07/29 09:01:44;;;;;;;12.10;11.50;;;44.40;45.60;;;;;;5045646;28;20439;-69
2021/07/29 09:04:13;;;;;;;13.77;12.90;;;43.40;45.40;;;;;;5019521;28;20509;-67
2021/07/29 09:06:54;;;;;;;13.40;12.60;;;43.30;46.10;;;;;;5019197;28;20500;-67
2021/07/29 09:09:35;;;;;;;12.40;11.70;;;42.90;46.50;;;;;;5002891;28;20435;-68
2021/07/29 09:12:16;;;;;;;12.37;11.77;;;39.60;49.70;;;;;;5002187;28;20809;-67
2021/07/29 09:14:44;;;;;;;13.80;13.20;;;40.00;49.50;;;;;;5034393;28;20458;-66
2021/07/29 09:17:12;;;;;;;13.10;12.57;;;41.20;47.20;;;;;;5002920;28;20439;-68
2021/07/29 09:19:41;;;;;;;14.20;13.50;;;43.50;45.50;;;;;;5001368;28;20435;-67
2021/07/29 09:22:12;;;;;;;13.37;12.77;;;44.90;43.30;;;;;;5002460;28;20758;-66
2021/07/29 09:25:06;;;;;;;13.50;12.47;;;42.50;46.20;;;;;;5026040;28;20583;-67
2021/07/29 09:27:41;;;;;;;12.53;12.00;;;39.60;48.20;;;;;;5019199;28;20465;-67
2021/07/29 09:30:22;;;;;;;12.47;11.93;;;37.40;51.60;;;;;;5017841;28;20434;-68
2021/07/29 09:33:05;;;;;;;13.10;12.50;;;35.50;55.00;;;;;;5018695;28;20426;-67
2021/07/29 09:35:32;;;;;;;11.97;11.07;;;33.60;58.50;;;;;;5019948;28;20446;-67
2021/07/29 09:38:02;;;;;;;12.23;11.23;;;32.10;61.20;;;;;;5019573;28;20497;-66
2021/07/29 09:40:52;;;;;;;12.27;11.40;;;31.00;64.80;;;;;;5019840;28;20618;-69
2021/07/29 09:43:21;;;;;;;11.73;11.03;;;30.00;67.50;;;;;;5018953;28;20477;-68
2021/07/29 09:45:51;;;;;;;10.40;9.90;;;29.40;68.90;;;;;;5017074;28;20446;-66
2021/07/29 09:48:21;;;;;;;11.10;10.40;;;28.50;72.50;;;;;;5006206;28;20505;-67
2021/07/29 09:50:58;;;;;;;10.13;9.43;;;28.40;73.70;;;;;;5018790;28;20498;-66
2021/07/29 09:53:31;;;;;;;10.30;9.70;;;28.80;72.10;;;;;;5005688;28;20640;-69
2021/07/29 09:55:59;;;;;;;10.90;10.10;;;28.80;72.50;;;;;;5018728;28;20442;-66
2021/07/29 09:58:26;;;;;;;9.80;9.40;;;29.10;73.10;;;;;;5017498;28;20450;-68
2021/07/29 10:00:53;;;;;;;9.10;8.70;;;29.40;68.50;;;;;;5018011;28;20443;-68
2021/07/29 10:03:24;;;;;;;10.00;9.40;;;29.40;67.70;;;;;;5018772;28;20486;-68
2021/07/29 10:05:57;;;;;;;10.53;10.03;;;29.30;69.10;;;;;;5016477;28;20442;-67
2021/07/29 10:08:34;;;;;;;9.90;9.20;;;29.00;70.80;;;;;;5007171;28;20435;-67
2021/07/29 10:11:06;;;;;;;10.10;9.50;;;28.40;70.60;;;;;;5003440;28;20471;-68
2021/07/29 10:13:39;;;;;;;10.40;9.83;;;27.70;72.10;;;;;;5018723;28;20438;-68
2021/07/29 10:16:08;;;;;;;10.47;9.87;;;27.20;72.80;;;;;;5018198;28;20775;-67
2021/07/29 10:18:50;;;;;;;8.83;8.43;;;26.90;74.30;;;;;;5016987;28;20793;-67
2021/07/29 10:21:29;;;;;;;9.60;9.10;;;26.40;75.00;;;;;;5016800;28;20452;-68
2021/07/29 10:23:58;;;;;;;10.00;9.50;;;26.40;75.60;;;;;;5016969;28;20541;-67
2021/07/29 10:26:26;;;;;;;8.93;8.53;;;26.50;76.00;;;;;;5014580;28;20451;-66
2021/07/29 10:29:21;;;;;;;9.27;8.57;;;26.70;74.60;;;;;;5017046;28;20456;-67
2021/07/29 10:32:02;;;;;;;8.07;7.73;;;27.00;72.20;;;;;;5017535;28;20437;-67
2021/07/29 10:34:33;;;;;;;9.10;8.70;;;27.40;71.10;;;;;;5015460;28;20779;-66
2021/07/29 10:37:08;;;;;;;9.20;8.70;;;28.10;70.00;;;;;;5004930;28;20448;-67
2021/07/29 10:40:01;;;;;;;9.83;9.23;;;28.70;69.30;;;;;;5020040;28;20771;-67
2021/07/29 10:42:29;;;;;;;9.87;9.17;;;29.30;66.90;;;;;;5021457;28;20492;-66
2021/07/29 10:44:57;;;;;;;9.40;8.80;;;29.50;66.30;;;;;;5026908;28;20449;-70
2021/07/29 10:47:36;;;;;;;9.57;9.07;;;29.60;63.70;;;;;;5020414;28;20501;-68
2021/07/29 10:50:03;;;;;;;9.63;9.10;;;29.30;66.00;;;;;;5028457;28;20524;-69
2021/07/29 10:52:31;;;;;;;9.37;8.87;;;28.70;66.50;;;;;;5025469;28;20435;-67
2021/07/29 10:55:01;;;;;;;9.17;8.77;;;28.50;66.50;;;;;;5028465;28;20744;-69
2021/07/29 10:57:29;;;;;;;8.27;7.90;;;28.50;68.20;;;;;;5025502;28;20445;-68
2021/07/29 10:59:59;;;;;;;9.40;8.90;;;28.40;68.10;;;;;;5015258;28;20484;-69
2021/07/29 11:02:53;;;;;;;8.37;7.87;;;28.30;68.30;;;;;;5021494;28;20438;-66
2021/07/29 11:05:25;;;;;;;9.10;8.30;;;28.70;68.40;;;;;;5026774;28;20478;-68
2021/07/29 11:07:52;;;;;;;9.07;8.60;;;29.10;68.80;;;;;;5004918;28;20447;-67
2021/07/29 11:10:27;;;;;;;8.50;8.10;;;28.80;68.20;;;;;;5004399;28;20435;-67
2021/07/29 11:12:55;;;;;;;9.47;8.97;;;28.30;67.70;;;;;;5013623;28;20566;-66
2021/07/29 11:15:22;;;;;;;10.30;9.43;;;28.10;68.40;;;;;;5012557;28;20443;-67
2021/07/29 11:17:49;;;;;;;9.70;9.10;;;27.90;67.30;;;;;;5013324;28;20762;-67
2021/07/29 11:20:27;;;;;;;9.80;9.30;;;28.00;68.60;;;;;;5014069;28;20462;-68
2021/07/29 11:22:55;;;;;;;9.37;8.87;;;28.00;68.70;;;;;;5017020;28;20434;-68
2021/07/29 11:25:22;;;;;;;9.13;8.63;;;28.00;68.30;;;;;;5021949;28;20476;-68
2021/07/29 11:27:50;;;;;;;8.37;7.87;;;28.20;67.60;;;;;;5023484;28;20434;-67
2021/07/29 11:30:17;;;;;;;8.53;8.00;;;28.30;67.90;;;;;;5017365;28;20492;-69
2021/07/29 11:32:46;;;;;;;9.00;8.30;;;28.30;67.00;;;;;;5017434;28;20462;-68
2021/07/29 11:35:15;;;;;;;9.73;9.03;;;28.10;66.80;;;;;;5016488;28;20417;-66
2021/07/29 11:37:46;;;;;;;9.50;9.00;;;28.20;67.00;;;;;;5016281;28;20435;-68
2021/07/29 11:40:24;;;;;;;9.60;9.10;;;28.20;66.30;;;;;;5020716;28;20435;-67
2021/07/29 11:42:52;;;;;;;8.53;8.13;;;28.10;65.10;;;;;;5015928;28;20679;-69
2021/07/29 11:45:25;;;;;;;9.40;8.80;;;28.10;66.50;;;;;;5016176;28;20501;-69
2021/07/29 11:47:52;;;;;;;9.57;8.97;;;27.80;67.30;;;;;;5018174;28;20442;-68
2021/07/29 11:50:40;;;;;;;8.80;8.30;;;27.50;68.90;;;;;;5020494;28;20582;-68
2021/07/29 11:53:09;;;;;;;9.57;9.07;;;27.40;67.80;;;;;;5015492;28;20441;-68
2021/07/29 11:55:37;;;;;;;9.53;8.97;;;27.70;66.20;;;;;;5017583;28;21032;-68
2021/07/29 11:58:13;;;;;;;8.60;8.17;;;27.80;68.10;;;;;;5016931;28;20442;-69
2021/07/29 12:00:41;;;;;;;10.10;9.20;;;27.80;66.30;;;;;;5031818;28;20404;-70
2021/07/29 12:03:23;;;;;;;9.17;8.70;;;27.60;64.40;;;;;;5016140;28;20936;-67
2021/07/29 12:05:51;;;;;;;8.43;8.03;;;27.20;64.90;;;;;;5017271;28;20488;-69
2021/07/29 12:08:18;;;;;;;8.70;8.20;;;27.20;66.60;;;;;;5022409;28;20499;-68
2021/07/29 12:10:46;;;;;;;8.70;8.20;;;27.50;67.50;;;;;;5034878;28;20528;-68
2021/07/29 12:13:14;;;;;;;7.97;7.47;;;27.80;67.00;;;;;;5023957;28;20408;-68
2021/07/29 12:15:41;;;;;;;8.53;8.03;;;27.90;67.20;;;;;;5027789;28;20457;-68
2021/07/29 12:18:19;;;;;;;13.23;9.40;;;27.90;63.90;;;;;;5020238;28;20988;-67
2021/07/29 12:20:51;;;;;;;8.23;7.80;;;27.70;64.50;;;;;;5011667;28;20460;-68
2021/07/29 12:23:20;;;;;;;9.60;9.10;;;27.70;63.40;;;;;;5006554;28;20448;-67
2021/07/29 12:25:48;;;;;;;8.10;7.60;;;27.70;61.90;;;;;;5018433;28;20831;-68
2021/07/29 12:28:35;;;;;;;9.10;8.60;;;27.70;63.00;;;;;;5018044;28;20737;-71
2021/07/29 12:31:19;;;;;;;9.50;8.90;;;27.30;62.20;;;;;;5013375;28;20486;-70
2021/07/29 12:33:51;;;;;;;9.23;8.73;;;27.00;62.50;;;;;;5018316;28;20424;-69
2021/07/29 12:36:20;;;;;;;9.40;8.70;;;27.20;63.90;;;;;;5008966;28;20443;-69
2021/07/29 12:39:00;;;;;;;9.00;8.40;;;27.40;64.20;;;;;;5025603;28;20788;-67
2021/07/29 12:41:29;;;;;;;8.00;7.60;;;27.40;62.50;;;;;;5025552;28;20766;-68
2021/07/29 12:44:10;;;;;;;8.60;8.20;;;27.40;62.60;;;;;;5021430;28;20454;-68
2021/07/29 12:46:38;;;;;;;8.83;8.33;;;27.40;63.10;;;;;;5010046;28;20440;-69
2021/07/29 12:49:06;;;;;;;8.43;8.00;;;27.30;62.00;;;;;;5016077;28;20743;-70
2021/07/29 12:51:35;;;;;;;8.00;7.60;;;27.30;61.20;;;;;;5017716;28;20412;-67